sensor_id;sensor_type;location;lat;lon;timestamp;P1;durP1;ratioP1;P2;durP2;ratioP2
12719;SDS011;6424;48.520;11.228;2023-06-19T00:00:39;7.87;;;6.87;;
12719;SDS011;6424;48.520;11.228;2023-06-19T00:03:05;7.50;;;6.40;;
12719;SDS011;6424;48.520;11.228;2023-06-19T00:05:46;6.70;;;6.10;;
12719;SDS011;6424;48.520;11.228;2023-06-19T00:08:27;7.17;;;6.47;;
12719;SDS011;6424;48.520;11.228;2023-06-19T00:11:07;7.20;;;6.50;;
12719;SDS011;6424;48.520;11.228;2023-06-19T00:13:49;7.23;;;6.53;;
12719;SDS011;6424;48.520;11.228;2023-06-19T00:16:30;7.57;;;6.53;;
12719;SDS011;6424;48.520;11.228;2023-06-19T00:19:11;6.80;;;6.10;;
12719;SDS011;6424;48.520;11.228;2023-06-19T00:21:52;6.87;;;6.17;;
12719;SDS011;6424;48.520;11.228;2023-06-19T00:24:37;9.40;;;6.70;;
12719;SDS011;6424;48.520;11.228;2023-06-19T00:27:18;7.07;;;6.37;;
12719;SDS011;6424;48.520;11.228;2023-06-19T00:29:58;7.17;;;6.47;;
12719;SDS011;6424;48.520;11.228;2023-06-19T00:32:42;8.13;;;6.97;;
12719;SDS011;6424;48.520;11.228;2023-06-19T00:35:26;8.47;;;6.77;;
12719;SDS011;6424;48.520;11.228;2023-06-19T00:38:08;8.90;;;7.17;;
12719;SDS011;6424;48.520;11.228;2023-06-19T00:40:49;8.13;;;7.23;;
12719;SDS011;6424;48.520;11.228;2023-06-19T00:43:29;7.63;;;6.83;;
12719;SDS011;6424;48.520;11.228;2023-06-19T00:46:10;7.53;;;6.83;;
12719;SDS011;6424;48.520;11.228;2023-06-19T00:48:52;7.80;;;7.03;;
12719;SDS011;6424;48.520;11.228;2023-06-19T00:51:33;8.37;;;7.17;;
12719;SDS011;6424;48.520;11.228;2023-06-19T00:54:14;7.63;;;6.93;;
12719;SDS011;6424;48.520;11.228;2023-06-19T00:56:42;8.20;;;7.40;;
12719;SDS011;6424;48.520;11.228;2023-06-19T00:59:24;7.50;;;6.80;;
12719;SDS011;6424;48.520;11.228;2023-06-19T01:02:04;7.73;;;6.60;;
12719;SDS011;6424;48.520;11.228;2023-06-19T01:04:45;8.57;;;7.53;;
12719;SDS011;6424;48.520;11.228;2023-06-19T01:10:38;7.63;;;6.93;;
12719;SDS011;6424;48.520;11.228;2023-06-19T01:13:27;7.87;;;7.10;;
12719;SDS011;6424;48.520;11.228;2023-06-19T01:16:16;7.63;;;6.83;;
12719;SDS011;6424;48.520;11.228;2023-06-19T01:18:43;7.47;;;6.70;;
12719;SDS011;6424;48.520;11.228;2023-06-19T01:21:24;7.43;;;6.73;;
12719;SDS011;6424;48.520;11.228;2023-06-19T01:24:06;8.30;;;7.50;;
12719;SDS011;6424;48.520;11.228;2023-06-19T01:26:46;7.97;;;7.17;;
12719;SDS011;6424;48.520;11.228;2023-06-19T01:29:27;8.40;;;7.60;;
12719;SDS011;6424;48.520;11.228;2023-06-19T01:32:18;12.30;;;7.80;;
12719;SDS011;6424;48.520;11.228;2023-06-19T01:35:06;8.57;;;7.20;;
12719;SDS011;6424;48.520;11.228;2023-06-19T01:37:34;7.87;;;7.07;;
12719;SDS011;6424;48.520;11.228;2023-06-19T01:40:16;9.13;;;8.23;;
12719;SDS011;6424;48.520;11.228;2023-06-19T01:43:00;9.90;;;7.63;;
12719;SDS011;6424;48.520;11.228;2023-06-19T01:45:42;8.43;;;7.63;;
12719;SDS011;6424;48.520;11.228;2023-06-19T01:48:23;8.17;;;7.37;;
12719;SDS011;6424;48.520;11.228;2023-06-19T01:51:04;8.23;;;7.40;;
12719;SDS011;6424;48.520;11.228;2023-06-19T01:53:31;7.40;;;6.80;;
12719;SDS011;6424;48.520;11.228;2023-06-19T01:56:11;8.57;;;7.77;;
12719;SDS011;6424;48.520;11.228;2023-06-19T01:58:37;9.27;;;8.37;;
12719;SDS011;6424;48.520;11.228;2023-06-19T02:01:18;9.13;;;7.90;;
12719;SDS011;6424;48.520;11.228;2023-06-19T02:03:59;11.27;;;8.50;;
12719;SDS011;6424;48.520;11.228;2023-06-19T02:06:25;8.90;;;8.07;;
12719;SDS011;6424;48.520;11.228;2023-06-19T02:09:05;10.27;;;8.27;;
12719;SDS011;6424;48.520;11.228;2023-06-19T02:11:33;8.20;;;7.27;;
12719;SDS011;6424;48.520;11.228;2023-06-19T02:14:13;8.83;;;7.93;;
12719;SDS011;6424;48.520;11.228;2023-06-19T02:16:39;9.00;;;8.07;;
12719;SDS011;6424;48.520;11.228;2023-06-19T02:19:23;9.17;;;7.97;;
12719;SDS011;6424;48.520;11.228;2023-06-19T02:22:04;11.07;;;8.53;;
12719;SDS011;6424;48.520;11.228;2023-06-19T02:24:46;9.70;;;8.47;;
12719;SDS011;6424;48.520;11.228;2023-06-19T02:27:27;9.07;;;8.17;;
12719;SDS011;6424;48.520;11.228;2023-06-19T02:30:08;7.83;;;7.13;;
12719;SDS011;6424;48.520;11.228;2023-06-19T02:32:49;9.83;;;7.90;;
12719;SDS011;6424;48.520;11.228;2023-06-19T02:35:29;8.60;;;7.73;;
12719;SDS011;6424;48.520;11.228;2023-06-19T02:38:10;8.67;;;7.77;;
12719;SDS011;6424;48.520;11.228;2023-06-19T02:40:52;8.57;;;7.77;;
12719;SDS011;6424;48.520;11.228;2023-06-19T02:43:33;8.70;;;7.80;;
12719;SDS011;6424;48.520;11.228;2023-06-19T02:46:14;9.43;;;7.60;;
12719;SDS011;6424;48.520;11.228;2023-06-19T02:48:55;8.87;;;8.07;;
12719;SDS011;6424;48.520;11.228;2023-06-19T02:51:35;8.60;;;7.80;;
12719;SDS011;6424;48.520;11.228;2023-06-19T02:54:16;9.33;;;8.37;;
12719;SDS011;6424;48.520;11.228;2023-06-19T02:56:57;8.70;;;7.90;;
12719;SDS011;6424;48.520;11.228;2023-06-19T02:59:37;7.57;;;6.80;;
12719;SDS011;6424;48.520;11.228;2023-06-19T03:02:18;9.43;;;8.37;;
12719;SDS011;6424;48.520;11.228;2023-06-19T03:04:59;9.23;;;8.33;;
12719;SDS011;6424;48.520;11.228;2023-06-19T03:07:25;9.47;;;8.60;;
12719;SDS011;6424;48.520;11.228;2023-06-19T03:10:08;8.97;;;8.13;;
12719;SDS011;6424;48.520;11.228;2023-06-19T03:12:49;9.60;;;8.70;;
12719;SDS011;6424;48.520;11.228;2023-06-19T03:15:30;9.20;;;8.13;;
12719;SDS011;6424;48.520;11.228;2023-06-19T03:17:56;9.63;;;8.43;;
12719;SDS011;6424;48.520;11.228;2023-06-19T03:20:36;9.30;;;8.40;;
12719;SDS011;6424;48.520;11.228;2023-06-19T03:23:02;9.60;;;8.67;;
12719;SDS011;6424;48.520;11.228;2023-06-19T03:25:43;9.63;;;8.73;;
12719;SDS011;6424;48.520;11.228;2023-06-19T03:28:09;9.37;;;8.47;;
12719;SDS011;6424;48.520;11.228;2023-06-19T03:30:50;12.70;;;10.33;;
12719;SDS011;6424;48.520;11.228;2023-06-19T03:33:15;10.90;;;9.80;;
12719;SDS011;6424;48.520;11.228;2023-06-19T03:35:56;10.30;;;9.30;;
12719;SDS011;6424;48.520;11.228;2023-06-19T03:38:37;9.67;;;8.77;;
12719;SDS011;6424;48.520;11.228;2023-06-19T03:41:18;12.20;;;9.33;;
12719;SDS011;6424;48.520;11.228;2023-06-19T03:43:58;10.40;;;9.13;;
12719;SDS011;6424;48.520;11.228;2023-06-19T03:46:39;11.47;;;10.33;;
12719;SDS011;6424;48.520;11.228;2023-06-19T03:49:20;10.60;;;9.53;;
12719;SDS011;6424;48.520;11.228;2023-06-19T03:52:01;11.17;;;10.07;;
12719;SDS011;6424;48.520;11.228;2023-06-19T03:54:42;11.23;;;10.10;;
12719;SDS011;6424;48.520;11.228;2023-06-19T03:57:22;11.17;;;10.07;;
12719;SDS011;6424;48.520;11.228;2023-06-19T04:00:03;11.27;;;10.13;;
12719;SDS011;6424;48.520;11.228;2023-06-19T04:02:48;10.93;;;10.00;;
12719;SDS011;6424;48.520;11.228;2023-06-19T04:05:29;11.40;;;10.37;;
12719;SDS011;6424;48.520;11.228;2023-06-19T04:08:09;12.57;;;11.00;;
12719;SDS011;6424;48.520;11.228;2023-06-19T04:10:50;11.27;;;10.17;;
12719;SDS011;6424;48.520;11.228;2023-06-19T04:13:31;12.13;;;10.93;;
12719;SDS011;6424;48.520;11.228;2023-06-19T04:16:12;11.70;;;10.70;;
12719;SDS011;6424;48.520;11.228;2023-06-19T04:18:53;11.90;;;10.80;;
12719;SDS011;6424;48.520;11.228;2023-06-19T04:21:33;11.37;;;10.37;;
12719;SDS011;6424;48.520;11.228;2023-06-19T04:24:14;13.47;;;12.07;;
12719;SDS011;6424;48.520;11.228;2023-06-19T04:26:55;12.43;;;11.30;;
12719;SDS011;6424;48.520;11.228;2023-06-19T04:29:21;11.30;;;10.20;;
12719;SDS011;6424;48.520;11.228;2023-06-19T04:32:02;10.87;;;9.87;;
12719;SDS011;6424;48.520;11.228;2023-06-19T04:34:51;11.10;;;10.00;;
12719;SDS011;6424;48.520;11.228;2023-06-19T04:37:31;10.63;;;9.53;;
12719;SDS011;6424;48.520;11.228;2023-06-19T04:40:12;12.10;;;10.07;;
12719;SDS011;6424;48.520;11.228;2023-06-19T04:42:53;9.40;;;8.60;;
12719;SDS011;6424;48.520;11.228;2023-06-19T04:45:34;12.27;;;9.43;;
12719;SDS011;6424;48.520;11.228;2023-06-19T04:48:14;11.43;;;10.23;;
12719;SDS011;6424;48.520;11.228;2023-06-19T04:50:55;10.83;;;9.83;;
12719;SDS011;6424;48.520;11.228;2023-06-19T04:53:36;10.97;;;9.97;;
12719;SDS011;6424;48.520;11.228;2023-06-19T04:56:17;11.20;;;10.13;;
12719;SDS011;6424;48.520;11.228;2023-06-19T04:58:58;11.37;;;10.37;;
12719;SDS011;6424;48.520;11.228;2023-06-19T05:01:41;11.50;;;9.83;;
12719;SDS011;6424;48.520;11.228;2023-06-19T05:04:21;10.87;;;9.77;;
12719;SDS011;6424;48.520;11.228;2023-06-19T05:07:02;10.73;;;9.60;;
12719;SDS011;6424;48.520;11.228;2023-06-19T05:09:43;11.17;;;10.17;;
12719;SDS011;6424;48.520;11.228;2023-06-19T05:12:24;13.13;;;9.90;;
12719;SDS011;6424;48.520;11.228;2023-06-19T05:15:05;11.00;;;9.27;;
12719;SDS011;6424;48.520;11.228;2023-06-19T05:17:46;11.43;;;10.07;;
12719;SDS011;6424;48.520;11.228;2023-06-19T05:20:27;12.20;;;10.17;;
12719;SDS011;6424;48.520;11.228;2023-06-19T05:23:08;10.63;;;9.53;;
12719;SDS011;6424;48.520;11.228;2023-06-19T05:25:33;10.50;;;9.50;;
12719;SDS011;6424;48.520;11.228;2023-06-19T05:28:14;10.67;;;9.67;;
12719;SDS011;6424;48.520;11.228;2023-06-19T05:30:55;11.47;;;10.40;;
12719;SDS011;6424;48.520;11.228;2023-06-19T05:33:21;11.37;;;10.37;;
12719;SDS011;6424;48.520;11.228;2023-06-19T05:36:03;10.97;;;9.97;;
12719;SDS011;6424;48.520;11.228;2023-06-19T05:38:44;11.70;;;10.50;;
12719;SDS011;6424;48.520;11.228;2023-06-19T05:41:25;11.77;;;10.27;;
12719;SDS011;6424;48.520;11.228;2023-06-19T05:43:51;11.67;;;10.47;;
12719;SDS011;6424;48.520;11.228;2023-06-19T05:46:31;11.17;;;10.17;;
12719;SDS011;6424;48.520;11.228;2023-06-19T05:49:12;12.10;;;10.77;;
12719;SDS011;6424;48.520;11.228;2023-06-19T05:51:53;11.63;;;10.47;;
12719;SDS011;6424;48.520;11.228;2023-06-19T05:54:33;12.47;;;11.27;;
12719;SDS011;6424;48.520;11.228;2023-06-19T05:57:14;11.47;;;10.33;;
12719;SDS011;6424;48.520;11.228;2023-06-19T05:59:51;11.53;;;10.43;;
12719;SDS011;6424;48.520;11.228;2023-06-19T06:02:33;14.23;;;10.87;;
12719;SDS011;6424;48.520;11.228;2023-06-19T06:05:13;11.77;;;10.57;;
12719;SDS011;6424;48.520;11.228;2023-06-19T06:07:54;11.53;;;10.33;;
12719;SDS011;6424;48.520;11.228;2023-06-19T06:10:36;11.23;;;10.23;;
12719;SDS011;6424;48.520;11.228;2023-06-19T06:13:16;10.83;;;9.83;;
12719;SDS011;6424;48.520;11.228;2023-06-19T06:15:57;12.03;;;10.63;;
12719;SDS011;6424;48.520;11.228;2023-06-19T06:18:38;12.93;;;11.10;;
12719;SDS011;6424;48.520;11.228;2023-06-19T06:21:19;11.53;;;10.40;;
12719;SDS011;6424;48.520;11.228;2023-06-19T06:23:59;12.50;;;10.87;;
12719;SDS011;6424;48.520;11.228;2023-06-19T06:26:41;12.27;;;11.07;;
12719;SDS011;6424;48.520;11.228;2023-06-19T06:29:22;12.10;;;10.90;;
12719;SDS011;6424;48.520;11.228;2023-06-19T06:32:04;11.80;;;10.67;;
12719;SDS011;6424;48.520;11.228;2023-06-19T06:34:46;11.67;;;10.47;;
12719;SDS011;6424;48.520;11.228;2023-06-19T06:37:27;12.63;;;10.70;;
12719;SDS011;6424;48.520;11.228;2023-06-19T06:40:08;12.23;;;11.00;;
12719;SDS011;6424;48.520;11.228;2023-06-19T06:42:50;12.30;;;10.87;;
12719;SDS011;6424;48.520;11.228;2023-06-19T06:45:30;12.50;;;11.20;;
12719;SDS011;6424;48.520;11.228;2023-06-19T06:48:11;12.07;;;10.97;;
12719;SDS011;6424;48.520;11.228;2023-06-19T06:50:52;12.63;;;11.10;;
12719;SDS011;6424;48.520;11.228;2023-06-19T06:53:41;11.93;;;10.83;;
12719;SDS011;6424;48.520;11.228;2023-06-19T06:56:06;13.30;;;11.33;;
12719;SDS011;6424;48.520;11.228;2023-06-19T06:58:47;11.07;;;9.90;;
12719;SDS011;6424;48.520;11.228;2023-06-19T07:01:28;12.43;;;10.43;;
12719;SDS011;6424;48.520;11.228;2023-06-19T07:04:09;10.87;;;9.87;;
12719;SDS011;6424;48.520;11.228;2023-06-19T07:06:49;10.50;;;9.40;;
12719;SDS011;6424;48.520;11.228;2023-06-19T07:09:31;11.77;;;9.60;;
12719;SDS011;6424;48.520;11.228;2023-06-19T07:12:11;11.50;;;9.90;;
12719;SDS011;6424;48.520;11.228;2023-06-19T07:14:53;11.40;;;8.93;;
12719;SDS011;6424;48.520;11.228;2023-06-19T07:17:34;8.37;;;7.57;;
12719;SDS011;6424;48.520;11.228;2023-06-19T07:20:00;8.17;;;7.27;;
12719;SDS011;6424;48.520;11.228;2023-06-19T07:22:41;8.20;;;7.37;;
12719;SDS011;6424;48.520;11.228;2023-06-19T07:25:09;6.67;;;6.17;;
12719;SDS011;6424;48.520;11.228;2023-06-19T07:27:51;7.30;;;6.67;;
12719;SDS011;6424;48.520;11.228;2023-06-19T07:30:31;8.93;;;7.00;;
12719;SDS011;6424;48.520;11.228;2023-06-19T07:33:12;8.83;;;6.73;;
12719;SDS011;6424;48.520;11.228;2023-06-19T07:35:53;6.87;;;6.27;;
12719;SDS011;6424;48.520;11.228;2023-06-19T07:38:34;7.90;;;6.40;;
12719;SDS011;6424;48.520;11.228;2023-06-19T07:41:15;7.00;;;6.20;;
12719;SDS011;6424;48.520;11.228;2023-06-19T07:43:55;6.57;;;5.97;;
12719;SDS011;6424;48.520;11.228;2023-06-19T07:46:36;6.57;;;5.73;;
12719;SDS011;6424;48.520;11.228;2023-06-19T07:49:17;7.83;;;6.23;;
12719;SDS011;6424;48.520;11.228;2023-06-19T07:51:43;8.70;;;6.10;;
12719;SDS011;6424;48.520;11.228;2023-06-19T07:54:23;6.80;;;6.00;;
12719;SDS011;6424;48.520;11.228;2023-06-19T07:57:04;7.67;;;6.70;;
12719;SDS011;6424;48.520;11.228;2023-06-19T07:59:46;9.03;;;6.43;;
12719;SDS011;6424;48.520;11.228;2023-06-19T08:02:27;6.10;;;5.60;;
12719;SDS011;6424;48.520;11.228;2023-06-19T08:05:09;6.60;;;5.90;;
12719;SDS011;6424;48.520;11.228;2023-06-19T08:07:50;6.70;;;5.60;;
12719;SDS011;6424;48.520;11.228;2023-06-19T08:10:31;7.07;;;5.27;;
12719;SDS011;6424;48.520;11.228;2023-06-19T08:13:12;6.83;;;5.87;;
12719;SDS011;6424;48.520;11.228;2023-06-19T08:15:52;5.87;;;5.23;;
12719;SDS011;6424;48.520;11.228;2023-06-19T08:18:33;8.43;;;5.93;;
12719;SDS011;6424;48.520;11.228;2023-06-19T08:21:14;6.30;;;5.70;;
12719;SDS011;6424;48.520;11.228;2023-06-19T08:23:55;6.57;;;5.80;;
12719;SDS011;6424;48.520;11.228;2023-06-19T08:26:35;6.10;;;5.60;;
12719;SDS011;6424;48.520;11.228;2023-06-19T08:29:17;6.53;;;5.80;;
12719;SDS011;6424;48.520;11.228;2023-06-19T08:31:58;7.03;;;6.33;;
12719;SDS011;6424;48.520;11.228;2023-06-19T08:34:39;8.07;;;6.67;;
12719;SDS011;6424;48.520;11.228;2023-06-19T08:37:21;6.60;;;5.87;;
12719;SDS011;6424;48.520;11.228;2023-06-19T08:40:02;7.37;;;6.77;;
12719;SDS011;6424;48.520;11.228;2023-06-19T08:42:48;6.70;;;6.10;;
12719;SDS011;6424;48.520;11.228;2023-06-19T08:45:29;6.97;;;6.37;;
12719;SDS011;6424;48.520;11.228;2023-06-19T08:48:12;7.93;;;6.53;;
12719;SDS011;6424;48.520;11.228;2023-06-19T08:50:54;7.93;;;6.10;;
12719;SDS011;6424;48.520;11.228;2023-06-19T08:53:36;7.73;;;6.30;;
12719;SDS011;6424;48.520;11.228;2023-06-19T08:56:26;6.67;;;6.07;;
12719;SDS011;6424;48.520;11.228;2023-06-19T08:59:07;7.20;;;6.50;;
12719;SDS011;6424;48.520;11.228;2023-06-19T09:01:52;7.10;;;6.40;;
12719;SDS011;6424;48.520;11.228;2023-06-19T09:04:34;6.87;;;6.17;;
12719;SDS011;6424;48.520;11.228;2023-06-19T09:07:15;6.23;;;5.63;;
12719;SDS011;6424;48.520;11.228;2023-06-19T09:09:56;6.37;;;5.77;;
12719;SDS011;6424;48.520;11.228;2023-06-19T09:12:38;5.33;;;4.93;;
12719;SDS011;6424;48.520;11.228;2023-06-19T09:15:18;6.20;;;5.60;;
12719;SDS011;6424;48.520;11.228;2023-06-19T09:18:03;5.43;;;4.90;;
12719;SDS011;6424;48.520;11.228;2023-06-19T09:20:44;6.83;;;5.20;;
12719;SDS011;6424;48.520;11.228;2023-06-19T09:23:25;6.33;;;4.93;;
12719;SDS011;6424;48.520;11.228;2023-06-19T09:25:51;5.67;;;5.27;;
12719;SDS011;6424;48.520;11.228;2023-06-19T09:28:21;5.83;;;5.03;;
12719;SDS011;6424;48.520;11.228;2023-06-19T09:31:03;6.40;;;5.30;;
12719;SDS011;6424;48.520;11.228;2023-06-19T09:33:45;6.37;;;5.40;;
12719;SDS011;6424;48.520;11.228;2023-06-19T09:36:26;6.67;;;4.90;;
12719;SDS011;6424;48.520;11.228;2023-06-19T09:38:52;5.43;;;4.67;;
12719;SDS011;6424;48.520;11.228;2023-06-19T09:41:35;5.63;;;5.07;;
12719;SDS011;6424;48.520;11.228;2023-06-19T09:44:18;5.57;;;4.87;;
12719;SDS011;6424;48.520;11.228;2023-06-19T09:47:02;5.27;;;4.77;;
12719;SDS011;6424;48.520;11.228;2023-06-19T09:49:54;4.80;;;4.40;;
12719;SDS011;6424;48.520;11.228;2023-06-19T09:52:35;4.90;;;4.43;;
12719;SDS011;6424;48.520;11.228;2023-06-19T09:55:16;5.93;;;5.30;;
12719;SDS011;6424;48.520;11.228;2023-06-19T09:57:59;5.47;;;4.80;;
12719;SDS011;6424;48.520;11.228;2023-06-19T10:00:26;4.43;;;4.13;;
12719;SDS011;6424;48.520;11.228;2023-06-19T10:03:11;5.13;;;4.63;;
12719;SDS011;6424;48.520;11.228;2023-06-19T10:06:02;6.77;;;5.40;;
12719;SDS011;6424;48.520;11.228;2023-06-19T10:08:45;6.67;;;5.03;;
12719;SDS011;6424;48.520;11.228;2023-06-19T10:11:26;4.97;;;4.57;;
12719;SDS011;6424;48.520;11.228;2023-06-19T10:14:07;5.47;;;4.43;;
12719;SDS011;6424;48.520;11.228;2023-06-19T10:16:48;6.07;;;4.90;;
12719;SDS011;6424;48.520;11.228;2023-06-19T10:19:29;5.90;;;5.03;;
12719;SDS011;6424;48.520;11.228;2023-06-19T10:22:18;6.13;;;5.57;;
12719;SDS011;6424;48.520;11.228;2023-06-19T10:25:02;5.57;;;5.17;;
12719;SDS011;6424;48.520;11.228;2023-06-19T10:27:42;5.67;;;5.27;;
12719;SDS011;6424;48.520;11.228;2023-06-19T10:30:25;5.60;;;5.13;;
12719;SDS011;6424;48.520;11.228;2023-06-19T10:33:05;5.23;;;4.67;;
12719;SDS011;6424;48.520;11.228;2023-06-19T10:35:46;5.17;;;4.77;;
12719;SDS011;6424;48.520;11.228;2023-06-19T10:38:27;5.17;;;4.77;;
12719;SDS011;6424;48.520;11.228;2023-06-19T10:41:18;5.10;;;4.47;;
12719;SDS011;6424;48.520;11.228;2023-06-19T10:44:08;6.10;;;5.40;;
12719;SDS011;6424;48.520;11.228;2023-06-19T10:46:52;5.70;;;5.23;;
12719;SDS011;6424;48.520;11.228;2023-06-19T10:49:18;5.63;;;5.13;;
12719;SDS011;6424;48.520;11.228;2023-06-19T10:51:59;5.77;;;5.27;;
12719;SDS011;6424;48.520;11.228;2023-06-19T10:54:40;5.10;;;4.63;;
12719;SDS011;6424;48.520;11.228;2023-06-19T10:57:30;6.67;;;5.13;;
12719;SDS011;6424;48.520;11.228;2023-06-19T11:00:21;4.93;;;4.53;;
12719;SDS011;6424;48.520;11.228;2023-06-19T11:02:51;4.83;;;4.33;;
12719;SDS011;6424;48.520;11.228;2023-06-19T11:05:31;6.93;;;5.60;;
12719;SDS011;6424;48.520;11.228;2023-06-19T11:08:19;6.23;;;5.63;;
12719;SDS011;6424;48.520;11.228;2023-06-19T11:11:01;6.13;;;5.53;;
12719;SDS011;6424;48.520;11.228;2023-06-19T11:13:43;5.93;;;5.03;;
12719;SDS011;6424;48.520;11.228;2023-06-19T11:16:09;5.57;;;5.00;;
12719;SDS011;6424;48.520;11.228;2023-06-19T11:18:55;5.93;;;5.43;;
12719;SDS011;6424;48.520;11.228;2023-06-19T11:21:38;5.37;;;4.97;;
12719;SDS011;6424;48.520;11.228;2023-06-19T11:24:11;6.40;;;5.40;;
12719;SDS011;6424;48.520;11.228;2023-06-19T11:26:53;5.88;;;5.30;;
12719;SDS011;6424;48.520;11.228;2023-06-19T11:29:24;5.90;;;5.35;;
12719;SDS011;6424;48.520;11.228;2023-06-19T11:32:13;6.00;;;5.50;;
12719;SDS011;6424;48.520;11.228;2023-06-19T11:34:55;5.88;;;5.03;;
12719;SDS011;6424;48.520;11.228;2023-06-19T11:37:35;5.22;;;4.82;;
12719;SDS011;6424;48.520;11.228;2023-06-19T11:40:16;4.70;;;4.30;;
12719;SDS011;6424;48.520;11.228;2023-06-19T11:43:01;6.30;;;4.68;;
12719;SDS011;6424;48.520;11.228;2023-06-19T11:45:45;4.65;;;4.00;;
12719;SDS011;6424;48.520;11.228;2023-06-19T11:48:29;4.07;;;3.78;;
12719;SDS011;6424;48.520;11.228;2023-06-19T11:51:10;4.55;;;4.15;;
12719;SDS011;6424;48.520;11.228;2023-06-19T11:53:51;4.57;;;4.22;;
12719;SDS011;6424;48.520;11.228;2023-06-19T11:56:32;4.40;;;4.10;;
12719;SDS011;6424;48.520;11.228;2023-06-19T11:59:13;4.60;;;4.20;;
12719;SDS011;6424;48.520;11.228;2023-06-19T12:01:54;4.68;;;4.28;;
12719;SDS011;6424;48.520;11.228;2023-06-19T12:04:21;5.93;;;4.43;;
12719;SDS011;6424;48.520;11.228;2023-06-19T12:06:47;5.00;;;4.10;;
12719;SDS011;6424;48.520;11.228;2023-06-19T12:09:28;4.05;;;3.75;;
12719;SDS011;6424;48.520;11.228;2023-06-19T12:12:09;4.35;;;3.75;;
12719;SDS011;6424;48.520;11.228;2023-06-19T12:14:50;3.55;;;3.25;;
12719;SDS011;6424;48.520;11.228;2023-06-19T12:17:31;3.80;;;3.50;;
12719;SDS011;6424;48.520;11.228;2023-06-19T12:19:56;4.18;;;3.83;;
12719;SDS011;6424;48.520;11.228;2023-06-19T12:22:37;3.97;;;3.67;;
12719;SDS011;6424;48.520;11.228;2023-06-19T12:25:18;4.18;;;3.88;;
12719;SDS011;6424;48.520;11.228;2023-06-19T12:27:59;4.47;;;3.75;;
12719;SDS011;6424;48.520;11.228;2023-06-19T12:30:39;4.13;;;3.83;;
12719;SDS011;6424;48.520;11.228;2023-06-19T12:33:20;6.45;;;4.05;;
12719;SDS011;6424;48.520;11.228;2023-06-19T12:35:46;3.60;;;3.30;;
12719;SDS011;6424;48.520;11.228;2023-06-19T12:38:27;3.88;;;3.58;;
12719;SDS011;6424;48.520;11.228;2023-06-19T12:41:08;4.90;;;3.90;;
12719;SDS011;6424;48.520;11.228;2023-06-19T12:43:49;4.20;;;3.63;;
12719;SDS011;6424;48.520;11.228;2023-06-19T12:46:29;3.85;;;3.55;;
12719;SDS011;6424;48.520;11.228;2023-06-19T12:49:10;4.32;;;4.03;;
12719;SDS011;6424;48.520;11.228;2023-06-19T12:51:51;3.72;;;3.42;;
12719;SDS011;6424;48.520;11.228;2023-06-19T12:54:32;4.07;;;3.78;;
12719;SDS011;6424;48.520;11.228;2023-06-19T12:57:13;4.72;;;3.88;;
12719;SDS011;6424;48.520;11.228;2023-06-19T12:59:38;4.07;;;3.63;;
12719;SDS011;6424;48.520;11.228;2023-06-19T13:02:19;4.28;;;3.88;;
12719;SDS011;6424;48.520;11.228;2023-06-19T13:05:00;4.88;;;3.90;;
12719;SDS011;6424;48.520;11.228;2023-06-19T13:07:26;4.22;;;3.92;;
12719;SDS011;6424;48.520;11.228;2023-06-19T13:10:06;3.80;;;3.50;;
12719;SDS011;6424;48.520;11.228;2023-06-19T13:12:47;4.03;;;3.70;;
12719;SDS011;6424;48.520;11.228;2023-06-19T13:15:28;4.82;;;4.43;;
12719;SDS011;6424;48.520;11.228;2023-06-19T13:18:09;6.45;;;4.65;;
12719;SDS011;6424;48.520;11.228;2023-06-19T13:20:50;4.20;;;3.83;;
12719;SDS011;6424;48.520;11.228;2023-06-19T13:23:30;4.03;;;3.72;;
12719;SDS011;6424;48.520;11.228;2023-06-19T13:26:11;4.20;;;3.83;;
12719;SDS011;6424;48.520;11.228;2023-06-19T13:28:37;4.40;;;4.00;;
12719;SDS011;6424;48.520;11.228;2023-06-19T13:31:18;4.53;;;3.90;;
12719;SDS011;6424;48.520;11.228;2023-06-19T13:33:58;4.22;;;3.80;;
12719;SDS011;6424;48.520;11.228;2023-06-19T13:36:39;5.65;;;3.45;;
12719;SDS011;6424;48.520;11.228;2023-06-19T13:39:20;3.70;;;3.40;;
12719;SDS011;6424;48.520;11.228;2023-06-19T13:41:46;3.60;;;3.35;;
12719;SDS011;6424;48.520;11.228;2023-06-19T13:44:27;3.80;;;3.53;;
12719;SDS011;6424;48.520;11.228;2023-06-19T13:47:08;3.70;;;3.40;;
12719;SDS011;6424;48.520;11.228;2023-06-19T13:49:48;4.43;;;3.80;;
12719;SDS011;6424;48.520;11.228;2023-06-19T13:52:29;4.25;;;3.67;;
12719;SDS011;6424;48.520;11.228;2023-06-19T13:55:10;4.38;;;3.65;;
12719;SDS011;6424;48.520;11.228;2023-06-19T13:57:50;3.85;;;3.47;;
12719;SDS011;6424;48.520;11.228;2023-06-19T14:00:32;3.88;;;3.55;;
12719;SDS011;6424;48.520;11.228;2023-06-19T14:03:15;4.20;;;3.80;;
12719;SDS011;6424;48.520;11.228;2023-06-19T14:05:56;4.18;;;3.80;;
12719;SDS011;6424;48.520;11.228;2023-06-19T14:08:36;4.05;;;3.75;;
12719;SDS011;6424;48.520;11.228;2023-06-19T14:11:19;3.80;;;3.50;;
12719;SDS011;6424;48.520;11.228;2023-06-19T14:14:00;4.22;;;3.72;;
12719;SDS011;6424;48.520;11.228;2023-06-19T14:16:41;5.82;;;4.00;;
12719;SDS011;6424;48.520;11.228;2023-06-19T14:19:22;4.00;;;3.67;;
12719;SDS011;6424;48.520;11.228;2023-06-19T14:22:03;3.70;;;3.40;;
12719;SDS011;6424;48.520;11.228;2023-06-19T14:24:44;5.47;;;4.00;;
12719;SDS011;6424;48.520;11.228;2023-06-19T14:27:26;4.05;;;3.75;;
12719;SDS011;6424;48.520;11.228;2023-06-19T14:30:07;4.20;;;3.00;;
12719;SDS011;6424;48.520;11.228;2023-06-19T14:32:48;3.88;;;3.60;;
12719;SDS011;6424;48.520;11.228;2023-06-19T14:35:29;3.53;;;3.22;;
12719;SDS011;6424;48.520;11.228;2023-06-19T14:38:09;3.95;;;3.65;;
12719;SDS011;6424;48.520;11.228;2023-06-19T14:40:50;4.18;;;3.78;;
12719;SDS011;6424;48.520;11.228;2023-06-19T14:43:31;3.70;;;3.40;;
12719;SDS011;6424;48.520;11.228;2023-06-19T14:46:14;4.50;;;3.72;;
12719;SDS011;6424;48.520;11.228;2023-06-19T14:48:55;4.28;;;3.72;;
12719;SDS011;6424;48.520;11.228;2023-06-19T14:51:24;3.63;;;3.33;;
12719;SDS011;6424;48.520;11.228;2023-06-19T14:54:05;3.80;;;3.50;;
12719;SDS011;6424;48.520;11.228;2023-06-19T14:56:46;4.97;;;3.20;;
12719;SDS011;6424;48.520;11.228;2023-06-19T14:59:29;4.55;;;3.63;;
12719;SDS011;6424;48.520;11.228;2023-06-19T15:02:10;3.72;;;3.42;;
12719;SDS011;6424;48.520;11.228;2023-06-19T15:04:51;3.65;;;3.35;;
12719;SDS011;6424;48.520;11.228;2023-06-19T15:07:32;3.90;;;3.60;;
12719;SDS011;6424;48.520;11.228;2023-06-19T15:10:13;3.85;;;3.55;;
12719;SDS011;6424;48.520;11.228;2023-06-19T15:12:53;4.32;;;3.70;;
12719;SDS011;6424;48.520;11.228;2023-06-19T15:15:34;3.60;;;3.30;;
12719;SDS011;6424;48.520;11.228;2023-06-19T15:18:00;3.67;;;3.38;;
12719;SDS011;6424;48.520;11.228;2023-06-19T15:20:26;3.92;;;3.58;;
12719;SDS011;6424;48.520;11.228;2023-06-19T15:23:06;3.90;;;3.40;;
12719;SDS011;6424;48.520;11.228;2023-06-19T15:25:47;3.80;;;3.50;;
12719;SDS011;6424;48.520;11.228;2023-06-19T15:28:29;4.68;;;3.67;;
12719;SDS011;6424;48.520;11.228;2023-06-19T15:31:11;3.90;;;3.55;;
12719;SDS011;6424;48.520;11.228;2023-06-19T15:33:37;5.35;;;3.90;;
12719;SDS011;6424;48.520;11.228;2023-06-19T15:36:18;3.83;;;3.50;;
12719;SDS011;6424;48.520;11.228;2023-06-19T15:38:58;4.13;;;3.72;;
12719;SDS011;6424;48.520;11.228;2023-06-19T15:41:39;4.30;;;3.90;;
12719;SDS011;6424;48.520;11.228;2023-06-19T15:44:21;7.05;;;3.70;;
12719;SDS011;6424;48.520;11.228;2023-06-19T15:47:01;4.20;;;3.75;;
12719;SDS011;6424;48.520;11.228;2023-06-19T15:49:27;6.05;;;3.60;;
12719;SDS011;6424;48.520;11.228;2023-06-19T15:52:08;4.05;;;3.65;;
12719;SDS011;6424;48.520;11.228;2023-06-19T15:54:49;3.47;;;3.28;;
12719;SDS011;6424;48.520;11.228;2023-06-19T15:57:30;4.50;;;4.10;;
12719;SDS011;6424;48.520;11.228;2023-06-19T16:00:11;3.83;;;3.50;;